createdAt,value
2022-12-11T00:00:37.073Z,21.52
2022-12-11T00:01:39.355Z,22.38
2022-12-11T00:02:41.638Z,23.27
2022-12-11T00:03:44.022Z,23.77
2022-12-11T00:04:46.219Z,19.23
2022-12-11T00:05:48.395Z,21.27
2022-12-11T00:06:50.731Z,24.50
2022-12-11T00:07:52.979Z,20.55
2022-12-11T00:08:55.626Z,19.27
2022-12-11T00:09:58.050Z,18.70
2022-12-11T00:11:00.516Z,17.98
2022-12-11T00:12:02.815Z,19.33
2022-12-11T00:13:05.616Z,21.95
2022-12-11T00:14:07.836Z,20.35
2022-12-11T00:15:10.611Z,23.05
2022-12-11T00:16:13.946Z,20.80
2022-12-11T00:17:17.256Z,22.23
2022-12-11T00:18:19.620Z,18.75
2022-12-11T00:19:21.774Z,17.65
2022-12-11T00:20:24.010Z,18.50
2022-12-11T00:21:26.618Z,21.35
2022-12-11T00:22:30.600Z,20.13
2022-12-11T00:23:34.825Z,21.83
2022-12-11T00:24:37.218Z,23.20
2022-12-11T00:25:47.491Z,22.08
2022-12-11T00:26:49.854Z,22.55
2022-12-11T00:27:52.020Z,21.83
2022-12-11T00:28:56.173Z,19.95
2022-12-11T00:29:58.311Z,21.38
2022-12-11T00:31:04.828Z,22.88
2022-12-11T00:32:07.088Z,23.50
2022-12-11T00:33:10.188Z,23.15
2022-12-11T00:34:12.386Z,21.27
2022-12-11T00:35:14.528Z,22.08
2022-12-11T00:36:25.496Z,31.33
2022-12-11T00:38:30.504Z,22.80
2022-12-11T00:39:32.740Z,20.65
2022-12-11T00:40:36.744Z,22.10
2022-12-11T00:41:39.351Z,22.15
2022-12-11T00:42:41.546Z,21.17
2022-12-11T00:43:44.139Z,22.73
2022-12-11T00:44:46.337Z,19.98
2022-12-11T00:45:48.737Z,21.33
2022-12-11T00:46:51.167Z,23.25
2022-12-11T00:47:53.308Z,19.08
2022-12-11T00:48:55.706Z,20.27
2022-12-11T00:49:57.974Z,19.35
2022-12-11T00:51:00.398Z,20.25
2022-12-11T00:52:02.648Z,20.60
2022-12-11T00:53:06.219Z,20.20
2022-12-11T00:54:08.390Z,21.17
2022-12-11T00:55:11.260Z,18.85
2022-12-11T00:56:17.194Z,22.38
2022-12-11T00:57:19.558Z,21.38
2022-12-11T00:58:22.135Z,21.90
2022-12-11T00:59:24.377Z,20.85
2022-12-11T01:00:27.253Z,21.05
2022-12-11T01:01:29.569Z,21.00
2022-12-11T01:02:32.033Z,21.17
2022-12-11T01:03:34.246Z,20.25
2022-12-11T01:04:37.087Z,21.63
2022-12-11T01:05:39.479Z,24.58
2022-12-11T01:06:41.644Z,18.80
2022-12-11T01:07:43.969Z,20.40
2022-12-11T01:08:46.955Z,20.80
2022-12-11T01:10:08.010Z,20.55
2022-12-11T01:11:12.664Z,21.10
2022-12-11T01:12:15.298Z,18.90
2022-12-11T01:13:17.570Z,21.02
2022-12-11T01:14:19.838Z,22.48
2022-12-11T01:15:24.570Z,24.05
2022-12-11T01:16:26.999Z,23.75
2022-12-11T01:17:29.445Z,20.95
2022-12-11T01:18:31.688Z,19.67
2022-12-11T01:19:34.114Z,22.00
2022-12-11T01:20:39.532Z,22.90
2022-12-11T01:21:41.748Z,20.77
2022-12-11T01:22:43.963Z,20.65
2022-12-11T01:23:46.171Z,20.02
2022-12-11T01:24:48.594Z,20.95
2022-12-11T01:25:50.762Z,22.25
2022-12-11T01:26:52.944Z,20.92
2022-12-11T01:27:56.237Z,23.20
2022-12-11T01:28:58.535Z,19.63
2022-12-11T01:30:00.744Z,19.10
2022-12-11T01:31:03.543Z,23.27
2022-12-11T01:32:05.778Z,20.27
2022-12-11T01:33:08.140Z,22.70
2022-12-11T01:34:10.368Z,20.15
2022-12-11T01:35:13.628Z,19.25
2022-12-11T01:36:19.567Z,18.48
2022-12-11T01:37:21.931Z,20.50
2022-12-11T01:38:24.398Z,19.10
2022-12-11T01:39:26.555Z,21.95
2022-12-11T01:40:29.709Z,21.63
2022-12-11T01:41:32.115Z,20.42
2022-12-11T01:42:34.389Z,20.85
2022-12-11T01:44:07.245Z,19.30
2022-12-11T01:45:21.560Z,20.65
2022-12-11T01:46:24.363Z,18.52
2022-12-11T01:47:26.531Z,21.10
2022-12-11T01:48:31.863Z,19.90
2022-12-11T01:49:34.570Z,22.83
2022-12-11T01:50:47.609Z,19.95
2022-12-11T01:52:07.195Z,21.27
2022-12-11T01:53:14.408Z,19.55
2022-12-11T01:54:19.152Z,19.33
2022-12-11T01:55:21.923Z,22.30
2022-12-11T01:56:24.688Z,20.48
2022-12-11T01:57:26.947Z,18.90
2022-12-11T01:58:40.580Z,19.63
2022-12-11T01:59:46.185Z,22.73
2022-12-11T02:00:48.478Z,19.02
2022-12-11T02:02:02.662Z,18.33
2022-12-11T02:03:05.144Z,20.10
2022-12-11T02:04:09.406Z,20.95
2022-12-11T02:05:12.397Z,22.83
2022-12-11T02:06:38.124Z,23.27
2022-12-11T02:07:46.386Z,20.95
2022-12-11T02:08:48.799Z,20.63
2022-12-11T02:09:51.066Z,21.08
2022-12-11T02:11:10.167Z,20.05
2022-12-11T02:12:41.408Z,22.90
2022-12-11T02:15:32.688Z,20.83
2022-12-11T02:17:00.819Z,20.40
2022-12-11T02:18:23.122Z,19.67
2022-12-11T02:19:54.770Z,18.30
2022-12-11T02:21:15.493Z,18.20
2022-12-11T02:22:47.726Z,20.23
2022-12-11T02:24:05.981Z,17.05
2022-12-11T02:25:46.091Z,20.98
2022-12-11T02:27:18.538Z,16.38
2022-12-11T02:28:38.671Z,20.92
2022-12-11T02:29:51.209Z,22.75
2022-12-11T02:31:26.152Z,17.67
2022-12-11T02:32:31.332Z,20.17
2022-12-11T02:33:42.317Z,17.45
2022-12-11T02:34:58.429Z,20.25
2022-12-11T02:36:02.609Z,18.77
2022-12-11T02:37:09.921Z,18.50
2022-12-11T02:38:19.769Z,17.98
2022-12-11T02:39:25.256Z,19.33
2022-12-11T02:40:32.757Z,20.65
2022-12-11T02:41:35.598Z,18.60
2022-12-11T02:42:42.443Z,19.65
2022-12-11T02:43:45.645Z,20.45
2022-12-11T02:44:50.668Z,20.33
2022-12-11T02:45:53.992Z,19.50
2022-12-11T02:46:58.301Z,20.52
2022-12-11T02:48:03.800Z,22.70
2022-12-11T02:49:08.065Z,20.17
2022-12-11T02:50:15.210Z,18.42
2022-12-11T02:51:21.493Z,18.33
2022-12-11T02:52:26.947Z,23.05
2022-12-11T02:53:32.347Z,18.00
2022-12-11T02:54:37.692Z,19.75
2022-12-11T02:55:42.176Z,20.45
2022-12-11T02:57:11.398Z,20.02
2022-12-11T02:58:26.002Z,19.60
2022-12-11T02:59:43.746Z,18.67
2022-12-11T03:00:47.047Z,21.15
2022-12-11T03:01:49.460Z,21.33
2022-12-11T03:02:51.823Z,20.55
2022-12-11T03:03:55.558Z,20.20
2022-12-11T03:04:59.478Z,20.13
2022-12-11T03:06:01.834Z,20.98
2022-12-11T03:07:12.412Z,22.75
2022-12-11T03:08:17.541Z,24.50
2022-12-11T03:09:20.871Z,19.02
2022-12-11T03:10:23.879Z,20.88
2022-12-11T03:11:26.483Z,22.88
2022-12-11T03:12:31.469Z,22.42
2022-12-11T03:13:34.218Z,20.77
2022-12-11T03:14:38.742Z,22.15
2022-12-11T03:15:44.001Z,20.17
2022-12-11T03:16:50.941Z,21.13
2022-12-11T03:18:09.779Z,22.63
2022-12-11T03:19:26.978Z,19.38
2022-12-11T03:20:44.194Z,20.15
2022-12-11T03:21:54.622Z,23.45
2022-12-11T03:23:09.827Z,21.77
2022-12-11T03:24:28.623Z,23.95
2022-12-11T03:25:40.236Z,22.52
2022-12-11T03:26:54.487Z,23.50
2022-12-11T03:28:07.098Z,24.25
2022-12-11T03:29:20.806Z,22.48
2022-12-11T03:30:24.937Z,25.08
2022-12-11T03:31:31.913Z,23.08
2022-12-11T03:33:19.260Z,21.80
2022-12-11T03:34:31.982Z,22.35
2022-12-11T03:35:39.195Z,25.38
2022-12-11T03:36:43.094Z,22.98
2022-12-11T03:37:48.239Z,25.85
2022-12-11T03:38:56.414Z,24.00
2022-12-11T03:40:04.563Z,23.98
2022-12-11T03:41:08.976Z,28.40
2022-12-11T03:42:15.983Z,22.27
2022-12-11T03:43:20.161Z,27.38
2022-12-11T03:44:24.292Z,22.95
2022-12-11T03:45:29.750Z,24.50
2022-12-11T03:46:35.302Z,24.40
2022-12-11T03:47:40.721Z,24.23
2022-12-11T03:48:46.829Z,22.50
2022-12-11T03:49:51.571Z,23.85
2022-12-11T03:50:54.607Z,25.88
2022-12-11T03:51:58.070Z,25.38
2022-12-11T03:53:02.231Z,25.65
2022-12-11T03:54:04.969Z,20.63
2022-12-11T03:55:09.313Z,22.90
2022-12-11T03:56:15.865Z,24.13
2022-12-11T03:57:22.607Z,24.98
2022-12-11T03:58:25.068Z,25.35
2022-12-11T03:59:27.494Z,23.25
2022-12-11T04:00:29.911Z,21.38
2022-12-11T04:01:32.115Z,24.30
2022-12-11T04:02:34.315Z,24.30
2022-12-11T04:03:37.088Z,21.48
2022-12-11T04:04:42.162Z,29.45
2022-12-11T04:05:50.740Z,22.38
2022-12-11T04:06:53.206Z,28.05
2022-12-11T04:07:55.480Z,24.42
2022-12-11T04:08:57.836Z,22.27
2022-12-11T04:10:01.193Z,23.83
2022-12-11T04:11:23.020Z,22.70
2022-12-11T04:12:25.460Z,25.35
2022-12-11T04:13:27.632Z,26.08
2022-12-11T04:14:48.732Z,20.70
2022-12-11T04:15:50.965Z,23.10
2022-12-11T04:16:53.618Z,23.10
2022-12-11T04:18:14.097Z,23.10
2022-12-11T04:19:35.586Z,24.20
2022-12-11T04:20:56.224Z,29.30
2022-12-11T04:22:17.404Z,23.80
2022-12-11T04:23:38.707Z,25.65
2022-12-11T04:24:41.125Z,23.02
2022-12-11T04:25:43.297Z,24.15
2022-12-11T04:26:47.272Z,26.27
2022-12-11T04:27:49.543Z,24.48
2022-12-11T04:28:52.091Z,24.42
2022-12-11T04:29:54.252Z,21.35
2022-12-11T04:30:56.470Z,28.00
2022-12-11T04:31:58.967Z,25.30
2022-12-11T04:33:01.832Z,23.83
2022-12-11T04:34:04.024Z,27.95
2022-12-11T04:35:09.139Z,23.55
2022-12-11T04:36:12.643Z,28.98
2022-12-11T04:37:15.003Z,26.27
2022-12-11T04:38:17.193Z,26.90
2022-12-11T04:39:19.420Z,30.70
2022-12-11T04:40:22.252Z,26.55
2022-12-11T04:41:24.554Z,28.33
2022-12-11T04:42:26.819Z,26.73
2022-12-11T04:43:29.584Z,26.77
2022-12-11T04:44:34.083Z,31.38
2022-12-11T04:45:36.316Z,23.10
2022-12-11T04:46:39.054Z,27.27
2022-12-11T04:47:41.732Z,24.02
2022-12-11T04:48:44.920Z,29.60
2022-12-11T04:49:47.456Z,27.05
2022-12-11T04:50:49.889Z,26.40
2022-12-11T04:51:52.067Z,24.35
2022-12-11T04:52:55.859Z,28.20
2022-12-11T04:53:59.414Z,26.80
2022-12-11T04:55:01.731Z,28.00
2022-12-11T04:56:09.115Z,29.05
2022-12-11T04:57:11.406Z,30.80
2022-12-11T04:58:13.861Z,29.67
2022-12-11T04:59:16.212Z,27.95
2022-12-11T05:00:18.674Z,25.60
2022-12-11T05:01:22.688Z,27.40
2022-12-11T05:02:25.166Z,26.50
2022-12-11T05:03:27.328Z,29.80
2022-12-11T05:04:34.382Z,24.67
2022-12-11T05:05:36.589Z,27.50
2022-12-11T05:06:39.209Z,28.83
2022-12-11T05:07:41.960Z,30.20
2022-12-11T05:08:45.404Z,26.00
2022-12-11T05:09:47.603Z,24.65
2022-12-11T05:11:01.112Z,28.45
2022-12-11T05:12:03.715Z,28.73
2022-12-11T05:13:05.935Z,25.95
2022-12-11T05:14:08.268Z,26.23
2022-12-11T05:15:11.015Z,29.05
2022-12-11T05:16:16.194Z,24.40
2022-12-11T05:17:18.591Z,27.58
2022-12-11T05:18:21.313Z,25.60
2022-12-11T05:19:23.468Z,26.63
2022-12-11T05:20:25.854Z,26.60
2022-12-11T05:21:34.641Z,25.63
2022-12-11T05:22:37.983Z,27.30
2022-12-11T05:23:41.568Z,27.90
2022-12-11T05:24:45.896Z,23.75
2022-12-11T05:25:56.400Z,25.30
2022-12-11T05:26:58.759Z,25.80
2022-12-11T05:28:00.918Z,24.83
2022-12-11T05:29:03.517Z,24.42
2022-12-11T05:30:06.589Z,26.15
2022-12-11T05:31:17.312Z,23.10
2022-12-11T05:33:21.721Z,26.63
2022-12-11T05:34:23.894Z,25.42
2022-12-11T05:35:26.269Z,26.17
2022-12-11T05:36:32.266Z,23.20
2022-12-11T05:37:34.749Z,25.85
2022-12-11T05:38:37.139Z,24.38
2022-12-11T05:39:39.330Z,27.27
2022-12-11T05:40:41.990Z,26.13
2022-12-11T05:41:44.465Z,27.00
2022-12-11T05:42:46.642Z,22.38
2022-12-11T05:43:49.065Z,24.98
2022-12-11T05:44:51.313Z,26.48
2022-12-11T05:45:54.105Z,28.00
2022-12-11T05:46:56.744Z,26.67
2022-12-11T05:47:59.011Z,24.98
2022-12-11T05:49:01.958Z,27.42
2022-12-11T05:50:04.488Z,29.10
2022-12-11T05:51:08.321Z,27.05
2022-12-11T05:52:10.689Z,28.00
2022-12-11T05:53:12.922Z,26.77
2022-12-11T05:54:15.142Z,27.98
2022-12-11T05:55:17.423Z,27.35
2022-12-11T05:56:31.640Z,26.23
2022-12-11T05:57:34.001Z,28.42
2022-12-11T05:58:36.482Z,24.80
2022-12-11T05:59:38.712Z,29.20
2022-12-11T06:00:44.461Z,27.60
2022-12-11T06:01:46.825Z,26.27
2022-12-11T06:02:49.694Z,28.80
2022-12-11T06:03:53.143Z,26.60
2022-12-11T06:04:55.360Z,30.77
2022-12-11T06:05:57.725Z,28.48
2022-12-11T06:06:59.930Z,32.72
2022-12-11T06:08:02.500Z,28.30
2022-12-11T06:09:05.646Z,28.67
2022-12-11T06:10:08.386Z,28.20
2022-12-11T06:11:14.118Z,25.83
2022-12-11T06:12:16.317Z,26.88
2022-12-11T06:13:18.913Z,28.65
2022-12-11T06:14:21.140Z,28.88
2022-12-11T06:15:23.638Z,26.58
2022-12-11T06:16:26.190Z,29.45
2022-12-11T06:17:28.583Z,33.35
2022-12-11T06:18:31.605Z,29.77
2022-12-11T06:19:36.916Z,30.48
2022-12-11T06:20:39.861Z,27.40
2022-12-11T06:21:42.113Z,30.25
2022-12-11T06:22:44.495Z,32.40
2022-12-11T06:23:48.522Z,28.92
2022-12-11T06:24:50.697Z,29.45
2022-12-11T06:25:53.430Z,26.85
2022-12-11T06:26:55.832Z,31.55
2022-12-11T06:27:58.083Z,27.42
2022-12-11T06:29:00.259Z,29.70
2022-12-11T06:30:02.813Z,29.50
2022-12-11T06:31:06.002Z,32.58
2022-12-11T06:32:08.392Z,32.13
2022-12-11T06:33:10.947Z,31.65
2022-12-11T06:34:13.836Z,30.85
2022-12-11T06:35:16.439Z,31.48
2022-12-11T06:36:22.431Z,28.67
2022-12-11T06:37:24.661Z,30.85
2022-12-11T06:38:27.268Z,27.48
2022-12-11T06:39:29.492Z,33.78
2022-12-11T06:40:31.951Z,33.33
2022-12-11T06:41:34.169Z,35.13
2022-12-11T06:42:36.417Z,29.30
2022-12-11T06:43:40.663Z,27.20
2022-12-11T06:44:42.824Z,31.63
2022-12-11T06:45:45.208Z,26.77
2022-12-11T06:46:47.508Z,30.70
2022-12-11T06:47:49.869Z,25.25
2022-12-11T06:48:52.525Z,28.88
2022-12-11T06:49:54.836Z,29.75
2022-12-11T06:50:57.897Z,35.20
2022-12-11T06:52:00.301Z,30.60
2022-12-11T06:53:02.771Z,29.55
2022-12-11T06:54:05.232Z,30.42
2022-12-11T06:55:07.822Z,29.42
2022-12-11T06:56:13.552Z,33.78
2022-12-11T06:57:16.410Z,27.80
2022-12-11T06:58:19.003Z,30.75
2022-12-11T06:59:21.252Z,37.90
2022-12-11T07:00:23.612Z,30.85
2022-12-11T07:01:28.223Z,29.40
2022-12-11T07:02:30.725Z,25.98
2022-12-11T07:03:33.686Z,26.75
2022-12-11T07:04:35.896Z,32.22
2022-12-11T07:05:38.270Z,30.75
2022-12-11T07:06:40.470Z,28.05
2022-12-11T07:07:42.845Z,30.20
2022-12-11T07:08:45.597Z,28.70
2022-12-11T07:09:47.823Z,28.30
2022-12-11T07:10:50.252Z,27.10
2022-12-11T07:11:53.252Z,27.65
2022-12-11T07:12:56.027Z,29.50
2022-12-11T07:14:02.796Z,26.45
2022-12-11T07:15:05.462Z,27.65
2022-12-11T07:16:10.956Z,30.83
2022-12-11T07:17:13.466Z,29.63
2022-12-11T07:18:15.928Z,29.05
2022-12-11T07:19:18.641Z,25.92
2022-12-11T07:20:20.899Z,28.17
2022-12-11T07:21:23.204Z,29.00
2022-12-11T07:22:25.391Z,30.17
2022-12-11T07:23:44.652Z,28.33
2022-12-11T07:24:46.853Z,28.75
2022-12-11T07:25:49.370Z,25.88
2022-12-11T07:26:51.600Z,34.13
2022-12-11T07:27:53.948Z,29.42
2022-12-11T07:29:00.884Z,30.92
2022-12-11T07:30:03.365Z,26.83
2022-12-11T07:31:13.280Z,26.17
2022-12-11T07:32:15.729Z,31.67
2022-12-11T07:33:18.073Z,30.52
2022-12-11T07:34:20.546Z,30.80
2022-12-11T07:35:22.775Z,27.17
2022-12-11T07:36:26.126Z,28.83
2022-12-11T07:37:28.345Z,29.67
2022-12-11T07:38:30.847Z,29.42
2022-12-11T07:39:33.209Z,31.83
2022-12-11T07:40:35.436Z,27.83
2022-12-11T07:41:38.869Z,27.33
2022-12-11T07:42:46.414Z,27.15
2022-12-11T07:43:49.515Z,28.05
2022-12-11T07:44:52.334Z,32.78
2022-12-11T07:45:54.558Z,30.15
2022-12-11T07:46:56.950Z,29.65
2022-12-11T07:47:59.243Z,33.50
2022-12-11T07:49:01.888Z,29.08
2022-12-11T07:50:04.238Z,30.60
2022-12-11T07:51:18.984Z,29.17
2022-12-11T07:52:21.188Z,33.78
2022-12-11T07:53:23.760Z,29.02
2022-12-11T07:54:26.220Z,31.50
2022-12-11T07:55:28.581Z,32.00
2022-12-11T07:56:31.787Z,32.42
2022-12-11T07:57:33.993Z,30.55
2022-12-11T07:58:38.915Z,30.77
2022-12-11T07:59:41.911Z,30.15
2022-12-11T08:00:45.340Z,30.52
2022-12-11T08:01:47.876Z,31.10
2022-12-11T08:02:50.080Z,31.08
2022-12-11T08:03:53.340Z,32.00
2022-12-11T08:04:55.680Z,31.58
2022-12-11T08:05:57.855Z,32.20
2022-12-11T08:07:00.255Z,32.95
2022-12-11T08:08:02.719Z,33.25
2022-12-11T08:09:07.274Z,29.05
2022-12-11T08:10:09.841Z,30.95
2022-12-11T08:11:14.563Z,29.45
2022-12-11T08:12:16.990Z,28.55
2022-12-11T08:13:19.177Z,31.00
2022-12-11T08:14:21.389Z,32.38
2022-12-11T08:15:23.560Z,29.08
2022-12-11T08:16:26.940Z,29.75
2022-12-11T08:17:32.802Z,28.40
2022-12-11T08:18:39.070Z,26.75
2022-12-11T08:19:41.413Z,32.33
2022-12-11T08:20:43.785Z,35.83
2022-12-11T08:21:46.942Z,30.85
2022-12-11T08:22:50.742Z,31.27
2022-12-11T08:23:55.033Z,27.48
2022-12-11T08:24:57.234Z,30.73
2022-12-11T08:26:01.636Z,29.17
2022-12-11T08:27:04.024Z,31.75
2022-12-11T08:28:06.361Z,28.30
2022-12-11T08:29:08.518Z,35.42
2022-12-11T08:30:11.284Z,28.75
2022-12-11T08:31:14.972Z,28.02
2022-12-11T08:32:18.049Z,32.90
2022-12-11T08:33:20.603Z,31.77
2022-12-11T08:34:22.792Z,28.35
2022-12-11T08:35:25.705Z,32.80
2022-12-11T08:36:28.202Z,31.55
2022-12-11T08:37:30.827Z,31.83
2022-12-11T08:38:34.180Z,29.45
2022-12-11T08:39:36.415Z,34.72
2022-12-11T08:40:38.828Z,29.88
2022-12-11T08:41:41.038Z,30.35
2022-12-11T08:42:43.604Z,36.58
2022-12-11T08:43:46.067Z,32.75
2022-12-11T08:44:48.228Z,32.55
2022-12-11T08:45:50.808Z,30.65
2022-12-11T08:46:53.020Z,33.83
2022-12-11T08:47:55.384Z,36.55
2022-12-11T08:48:58.458Z,31.45
2022-12-11T08:50:00.829Z,33.20
2022-12-11T08:51:05.884Z,30.08
2022-12-11T08:52:08.049Z,34.78
2022-12-11T08:53:10.604Z,33.50
2022-12-11T08:54:12.938Z,32.80
2022-12-11T08:55:15.211Z,31.90
2022-12-11T08:56:20.449Z,35.08
2022-12-11T08:57:22.658Z,31.45
2022-12-11T08:58:25.163Z,33.47
2022-12-11T08:59:27.411Z,30.63
2022-12-11T09:00:29.575Z,33.30
2022-12-11T09:01:32.709Z,36.28
2022-12-11T09:02:35.250Z,32.92
2022-12-11T09:03:38.759Z,33.35
2022-12-11T09:04:41.004Z,31.77
2022-12-11T09:05:43.214Z,28.90
2022-12-11T09:06:45.454Z,31.85
2022-12-11T09:07:47.687Z,30.52
2022-12-11T09:08:52.835Z,33.80
2022-12-11T09:09:55.519Z,28.45
2022-12-11T09:11:05.807Z,29.95
2022-12-11T09:12:07.991Z,34.58
2022-12-11T09:13:10.506Z,33.22
2022-12-11T09:14:12.698Z,33.22
2022-12-11T09:15:14.855Z,27.80
2022-12-11T09:16:19.503Z,30.15
2022-12-11T09:17:21.674Z,29.58
2022-12-11T09:18:24.278Z,29.52
2022-12-11T09:19:31.944Z,29.30
2022-12-11T09:20:34.499Z,31.00
2022-12-11T09:21:36.916Z,31.58
2022-12-11T09:22:39.775Z,32.30
2022-12-11T09:23:42.200Z,31.67
2022-12-11T09:24:44.412Z,32.58
2022-12-11T09:25:46.586Z,29.63
2022-12-11T09:26:48.947Z,34.42
2022-12-11T09:27:51.145Z,31.35
2022-12-11T09:28:54.030Z,32.15
2022-12-11T09:29:56.294Z,28.73
2022-12-11T09:30:58.495Z,35.47
2022-12-11T09:32:00.865Z,27.27
2022-12-11T09:33:03.013Z,32.55
2022-12-11T09:34:08.522Z,32.78
2022-12-11T09:35:11.355Z,31.58
2022-12-11T09:36:14.240Z,33.78
2022-12-11T09:37:16.525Z,29.85
2022-12-11T09:38:18.819Z,30.38
2022-12-11T09:39:21.452Z,33.90
2022-12-11T09:40:23.891Z,35.05
2022-12-11T09:41:36.893Z,28.52
2022-12-11T09:43:17.829Z,34.38
2022-12-11T09:45:10.261Z,35.30
2022-12-11T09:46:17.173Z,35.08
2022-12-11T09:47:26.127Z,33.72
2022-12-11T09:48:33.031Z,32.40
2022-12-11T09:49:41.142Z,34.10
2022-12-11T09:50:43.789Z,32.92
2022-12-11T09:51:52.088Z,31.85
2022-12-11T09:53:09.441Z,32.60
2022-12-11T09:54:14.170Z,32.50
2022-12-11T09:55:24.885Z,35.17
2022-12-11T09:58:05.242Z,30.45
2022-12-11T09:59:49.239Z,36.80
2022-12-11T10:01:25.323Z,36.05
2022-12-11T10:02:43.558Z,33.42
2022-12-11T10:03:57.748Z,36.67
2022-12-11T10:05:28.549Z,34.20
2022-12-11T10:06:37.165Z,35.22
2022-12-11T10:07:55.008Z,36.22
2022-12-11T10:09:11.120Z,34.53
2022-12-11T10:10:16.525Z,33.33
2022-12-11T10:11:36.856Z,32.70
2022-12-11T10:13:00.404Z,30.48
2022-12-11T10:14:11.624Z,33.65
2022-12-11T10:15:51.148Z,33.50
2022-12-11T10:17:40.095Z,53.38
2022-12-11T10:18:42.516Z,34.63
2022-12-11T10:19:45.341Z,30.52
2022-12-11T10:20:49.074Z,41.80
2022-12-11T10:21:53.080Z,35.85
2022-12-11T10:22:57.068Z,38.45
2022-12-11T10:24:03.616Z,39.08
2022-12-11T10:25:11.097Z,33.55
2022-12-11T10:26:20.174Z,32.58
2022-12-11T10:27:26.962Z,31.70
2022-12-11T10:28:29.479Z,31.80
2022-12-11T10:29:31.693Z,35.17
2022-12-11T10:30:38.187Z,33.28
2022-12-11T10:31:52.483Z,33.55
2022-12-11T10:33:12.077Z,30.08
2022-12-11T10:34:35.437Z,30.52
2022-12-11T10:35:52.416Z,34.47
2022-12-11T10:37:00.271Z,34.60
2022-12-11T10:38:13.725Z,35.17
2022-12-11T10:39:18.958Z,33.50
2022-12-11T10:40:24.329Z,32.72
2022-12-11T10:41:41.867Z,37.40
2022-12-11T10:42:53.199Z,41.30
2022-12-11T10:43:55.779Z,57.42
2022-12-11T10:45:03.397Z,35.03
2022-12-11T10:46:07.219Z,31.80
2022-12-11T10:47:18.584Z,39.90
2022-12-11T10:48:22.053Z,31.08
2022-12-11T10:49:26.869Z,34.50
2022-12-11T10:50:29.068Z,35.78
2022-12-11T10:51:31.174Z,38.15
2022-12-11T10:52:42.518Z,39.13
2022-12-11T10:53:50.996Z,37.78
2022-12-11T10:55:00.687Z,44.33
2022-12-11T10:56:02.943Z,36.33
2022-12-11T10:57:07.465Z,33.17
2022-12-11T10:58:17.922Z,34.67
2022-12-11T10:59:31.272Z,36.58
2022-12-11T11:00:41.267Z,32.95
2022-12-11T11:01:47.403Z,36.50
2022-12-11T11:02:49.725Z,38.97
2022-12-11T11:04:07.095Z,34.35
2022-12-11T11:05:27.047Z,35.85
2022-12-11T11:06:29.573Z,43.72
2022-12-11T11:07:33.189Z,32.38
2022-12-11T11:08:42.541Z,41.92
2022-12-11T11:09:45.077Z,39.35
2022-12-11T11:11:01.315Z,35.38
2022-12-11T11:12:07.915Z,38.33
2022-12-11T11:13:13.400Z,38.58
2022-12-11T11:14:21.370Z,36.65
2022-12-11T11:15:27.923Z,41.70
2022-12-11T11:16:30.439Z,36.70
2022-12-11T11:17:49.797Z,37.55
2022-12-11T11:18:58.253Z,39.50
2022-12-11T11:20:11.997Z,39.58
2022-12-11T11:21:19.581Z,34.88
2022-12-11T11:22:22.084Z,41.95
2022-12-11T11:23:25.335Z,38.25
2022-12-11T11:24:35.418Z,36.67
2022-12-11T11:25:38.039Z,36.40
2022-12-11T11:27:11.685Z,39.42
2022-12-11T11:28:17.916Z,36.92
2022-12-11T11:29:30.859Z,38.25
2022-12-11T11:30:39.730Z,32.13
2022-12-11T11:31:42.372Z,39.35
2022-12-11T11:32:44.805Z,40.83
2022-12-11T11:33:57.339Z,36.08
2022-12-11T11:35:11.900Z,36.83
2022-12-11T11:36:26.208Z,39.10
2022-12-11T11:37:33.291Z,39.47
2022-12-11T11:38:47.091Z,41.22
2022-12-11T11:39:52.877Z,40.72
2022-12-11T11:41:04.217Z,33.75
2022-12-11T11:42:18.603Z,34.80
2022-12-11T11:43:34.487Z,39.10
2022-12-11T11:44:47.105Z,37.85
2022-12-11T11:45:59.797Z,35.70
2022-12-11T11:47:17.225Z,37.25
2022-12-11T11:48:44.213Z,33.38
2022-12-11T11:50:12.116Z,30.48
2022-12-11T11:51:36.066Z,36.63
2022-12-11T11:52:46.608Z,35.78
2022-12-11T11:53:51.605Z,38.10
2022-12-11T11:55:06.618Z,37.15
2022-12-11T11:56:31.377Z,39.25
2022-12-11T11:57:55.631Z,39.03
2022-12-11T11:59:03.278Z,34.78
2022-12-11T12:00:16.932Z,36.83
2022-12-11T12:01:20.638Z,34.67
2022-12-11T12:02:22.901Z,36.40
2022-12-11T12:03:26.206Z,38.55
2022-12-11T12:04:33.797Z,42.38
2022-12-11T12:06:15.417Z,36.33
2022-12-11T12:07:17.614Z,36.22
2022-12-11T12:08:55.476Z,41.95
2022-12-11T12:10:04.008Z,36.33
2022-12-11T12:11:09.090Z,37.75
2022-12-11T12:12:42.541Z,34.42
2022-12-11T12:14:03.451Z,38.53
2022-12-11T12:15:29.575Z,31.27
2022-12-11T12:16:53.429Z,35.47
2022-12-11T12:18:18.672Z,37.92
2022-12-11T12:19:48.978Z,33.53
2022-12-11T12:21:00.286Z,36.60
2022-12-11T12:22:17.257Z,33.78
2022-12-11T12:23:41.873Z,37.40
2022-12-11T12:24:59.491Z,34.58
2022-12-11T12:26:16.351Z,35.08
2022-12-11T12:27:57.906Z,35.22
2022-12-11T12:29:18.190Z,31.83
2022-12-11T12:30:23.462Z,34.78
2022-12-11T12:31:50.569Z,29.98
2022-12-11T12:36:19.818Z,33.60
2022-12-11T12:37:45.210Z,38.47
2022-12-11T12:38:55.742Z,30.73
2022-12-11T12:40:16.697Z,37.08
2022-12-11T12:41:30.189Z,32.92
2022-12-11T12:43:04.499Z,30.48
2022-12-11T12:44:16.993Z,33.30
2022-12-11T12:45:36.985Z,33.60
2022-12-11T12:46:39.717Z,27.73
2022-12-11T12:47:53.084Z,30.15
2022-12-11T12:48:58.812Z,33.05
2022-12-11T12:50:02.730Z,32.40
2022-12-11T12:51:06.852Z,32.08
2022-12-11T12:52:26.077Z,30.52
2022-12-11T12:53:33.934Z,29.48
2022-12-11T12:54:38.122Z,31.48
2022-12-11T12:55:40.642Z,32.25
2022-12-11T12:56:45.126Z,29.33
2022-12-11T12:58:00.581Z,31.48
2022-12-11T12:59:05.447Z,28.80
2022-12-11T13:00:13.344Z,39.95
2022-12-11T13:01:22.701Z,29.85
2022-12-11T13:02:25.615Z,27.42
2022-12-11T13:03:35.824Z,29.83
2022-12-11T13:04:59.155Z,23.05
2022-12-11T13:06:07.212Z,30.67
2022-12-11T13:07:30.081Z,26.02
2022-12-11T13:08:47.176Z,28.70
2022-12-11T13:09:58.405Z,30.95
2022-12-11T13:11:07.416Z,27.33
2022-12-11T13:12:15.717Z,35.60
2022-12-11T13:14:07.694Z,28.95
2022-12-11T13:15:34.280Z,28.45
2022-12-11T13:16:39.475Z,27.15
2022-12-11T13:17:41.861Z,26.35
2022-12-11T13:18:47.704Z,25.60
2022-12-11T13:19:57.481Z,25.25
2022-12-11T13:20:59.821Z,26.33
2022-12-11T13:22:20.308Z,24.50
2022-12-11T13:23:40.244Z,27.90
2022-12-11T13:24:59.813Z,24.25
2022-12-11T13:26:05.166Z,25.05
2022-12-11T13:27:25.228Z,22.65
2022-12-11T13:28:39.306Z,25.55
2022-12-11T13:29:42.650Z,24.73
2022-12-11T13:30:45.342Z,25.30
2022-12-11T13:31:57.886Z,26.25
2022-12-11T13:33:07.403Z,23.25
2022-12-11T13:34:18.666Z,25.63
2022-12-11T13:35:22.067Z,27.67
2022-12-11T13:36:30.095Z,26.60
2022-12-11T13:37:39.796Z,23.25
2022-12-11T13:38:53.576Z,23.60
2022-12-11T13:40:00.931Z,22.20
2022-12-11T13:41:09.939Z,30.33
2022-12-11T13:42:48.851Z,20.10
2022-12-11T13:43:52.584Z,22.92
2022-12-11T13:44:55.424Z,21.05
2022-12-11T13:46:03.562Z,21.65
2022-12-11T13:47:11.798Z,23.80
2022-12-11T13:48:51.683Z,21.27
2022-12-11T13:49:59.735Z,21.33
2022-12-11T13:51:02.628Z,22.60
2022-12-11T13:52:08.233Z,23.92
2022-12-11T13:53:15.855Z,25.67
2022-12-11T13:54:19.463Z,22.65
2022-12-11T13:55:27.988Z,21.38
2022-12-11T13:56:30.429Z,23.33
2022-12-11T13:57:32.686Z,22.48
2022-12-11T13:58:38.426Z,23.92
2022-12-11T13:59:43.420Z,24.10
2022-12-11T14:00:54.474Z,24.05
2022-12-11T14:02:15.665Z,23.38
2022-12-11T14:03:18.965Z,25.38
2022-12-11T14:04:22.661Z,22.63
2022-12-11T14:05:28.565Z,22.75
2022-12-11T14:06:36.108Z,27.40
2022-12-11T14:07:50.248Z,28.63
2022-12-11T14:08:55.416Z,25.30
2022-12-11T14:10:22.147Z,23.67
2022-12-11T14:11:31.374Z,23.95
2022-12-11T14:12:34.041Z,21.17
2022-12-11T14:13:39.934Z,26.77
2022-12-11T14:14:51.534Z,23.52
2022-12-11T14:15:55.261Z,20.83
2022-12-11T14:16:57.666Z,23.25
2022-12-11T14:18:01.119Z,23.02
2022-12-11T14:19:11.070Z,26.88
2022-12-11T14:20:34.115Z,23.30
2022-12-11T14:21:37.436Z,21.63
2022-12-11T14:22:39.652Z,22.02
2022-12-11T14:23:50.938Z,22.60
2022-12-11T14:24:56.548Z,21.83
2022-12-11T14:26:04.234Z,22.73
2022-12-11T14:27:16.839Z,20.05
2022-12-11T14:28:19.070Z,25.40
2022-12-11T14:29:39.379Z,26.60
2022-12-11T14:30:47.767Z,26.02
2022-12-11T14:31:51.083Z,26.10
2022-12-11T14:33:00.192Z,26.63